Colon, MI (49040)

11:42 PM EDT on August 31, 2016 (GMT -0400)
The Point | | Change Station

Elev 837 ft 41.98 °N, 85.50 °W | Updated 15 minutes ago

Clear
Clear
65.5 °F
Feels Like 65.5 °F
N
2.7
Wind Variable Wind from NNW

Today
High -- | Low -- °F
--% Chance of Precip.
Yesterday
High -- | Low -- °F
Precip. -- in
Pressure 30.06 in
Visibility 10.0 miles
Clouds Clear
Dew Point 61 °F
Humidity 85%
Rainfall in
Snow Depth Not available.
7:06 AM 8:15 PM
Waning Crescent, 0% visible
METAR KIRS 010334Z AUTO 03004KT 10SM CLR 17/15 A3006 RMK AO2 T01670146
Pressure 30.06 in
Visibility 10.0 miles
Clouds Clear
Dew Point 61 °F
Humidity 85%
Rainfall in
Snow Depth Not available.
7:06 AM 8:15 PM
Waning Crescent, 0% visible
METAR KIRS 010334Z AUTO 03004KT 10SM CLR 17/15 A3006 RMK AO2 T01670146

10-Day Weather Forecast

Almanac

Astronomy

Aug. 31, 2016 Rise Set
Actual Time
Civil Twilight
Nautical Twilight
Astronomical Twilight
Moon
Length of Visible Light
Length of Day
Tomorrow will be .
, % of the Moon is Illuminated

Today's Extremes

State Highs State Lows

Community

WunderPhotos

Upload Photos

1,936,291 photos uploaded!

WunderBlog® & News

Nearby

Air Quality

  Air Quality AQ Index Pollutant
Not available.

Snow Depth

Station Depth Elevation

Earthquake Activity

City Distance Mag. Time & Date
Minimum magnitude displayed is 2.5.

Coastal Water Temperatures

Place Temperature

Stations

Nearby Weather Stations

Station Location Temp. Windchill Dew Point Humidity Wind Precip. Elev Updated Type
                   

Watches & Warnings

There are currently no watches in effect.